Flight Track Log - Related Links

Times and Time Zones

All times are in EDT time to prevent confusion due to time zone crossing. See the N32PA flight status page for this flight to view local times or setup timezone preferences in your user account.

Time Position Orientation Groundspeed Altitude Reporting Facility
EDT Latitude Longitude Course Direction KTS MPH feet Rate Location/Type
Wed 09:14:34 PM 26.0753 -80.1250 90° East 221 254 800  Level Miami Center
Wed 09:14:40 PM 26.0753 -80.1158 90° East 225 259 1,400 2,328 Climbing Miami Center
Wed 09:15:41 PM 26.0872 -80.0514 78° East 216 249 3,400 1,623 Climbing Miami Center
Wed 09:16:42 PM 26.1564 -80.0417 North 281 323 4,700 1,543 Climbing Miami Center
Wed 09:16:51 PM 26.1689 -80.0419 359° North 288 331 5,200 3,130 Climbing Miami Center
Wed 09:17:51 PM 26.2283 -80.0969 320° Northwest 268 308 8,300 3,150 Climbing Miami Center
Wed 09:18:51 PM 26.2814 -80.1469 320° Northwest 284 327 11,500 2,650 Climbing Miami Center
Wed 09:19:51 PM 26.3450 -80.2067 320° Northwest 284 327 13,600 2,150 Climbing Miami Center
Wed 09:20:51 PM 26.4103 -80.2689 320° Northwest 313 360 15,800 2,600 Climbing Miami Center
Wed 09:21:51 PM 26.4944 -80.3294 327° Northwest 330 380 18,800 2,600 Climbing Miami Center
Wed 09:22:51 PM 26.5753 -80.3550 344° North 324 373 21,000 1,850 Climbing Miami Center
Wed 09:23:51 PM 26.6747 -80.3928 341° North 340 391 22,500 1,450 Climbing Miami Center
Wed 09:24:51 PM 26.7636 -80.4233 343° North 361 415 23,900 1,409 Climbing Miami Center
Wed 09:26:03 PM 26.8653 -80.4592 343° North 367 422 25,600 1,864 Climbing Miami Center
Wed 09:27:03 PM 26.9853 -80.5022 342° North 372 428 28,000 2,000 Climbing Miami Center
Wed 09:28:03 PM 27.0867 -80.5381 343° North 372 428 29,600 1,250 Climbing Miami Center
Wed 09:29:03 PM 27.1903 -80.5672 346° North 377 434 30,500 900 Climbing Miami Center
Wed 09:30:03 PM 27.2958 -80.6056 342° North 382 440 31,400 1,000 Climbing Miami Center
Wed 09:31:03 PM 27.4056 -80.6419 344° North 393 452 32,500 1,100 Climbing Miami Center
Wed 09:32:03 PM 27.5131 -80.6806 342° North 399 459 33,600 1,050 Climbing Miami Center
Wed 09:33:03 PM 27.6206 -80.7192 342° North 399 459 34,600 1,000 Climbing Miami Center
Wed 09:34:03 PM 27.7300 -80.7628 341° North 399 459 35,600 950 Climbing Miami Center
Wed 09:35:03 PM 27.8522 -80.8000 345° North 404 465 36,500 1,000 Climbing Miami Center
Wed 09:36:03 PM 27.9639 -80.8389 343° North 409 471 37,600 1,000 Climbing Miami Center
Wed 09:37:03 PM 28.0714 -80.8758 343° North 409 471 38,500 650 Climbing Miami Center
Wed 09:38:03 PM 28.1786 -80.9197 340° North 409 471 38,900 200 Climbing Miami Center
Wed 09:39:03 PM 28.2833 -80.9728 336° Northwest 409 471 38,900  Level Miami Center
Wed 09:40:03 PM 28.4011 -81.0197 341° North 415 478 38,900  Level Miami Center
Wed 09:41:03 PM 28.5083 -81.0567 343° North 437 503 38,900 64 Level Miami Center
Wed 09:41:37 PM 28.5900 -81.0864 342° North 462 532 39,000 63 Climbing Jacksonville Center
Wed 09:42:38 PM 28.6989 -81.1128 348° North 449 517 39,000  Level Jacksonville Center
Wed 09:43:38 PM 28.8183 -81.1508 344° North 444 511 39,000 -50 Level Jacksonville Center
Wed 09:44:38 PM 28.9439 -81.1772 350° North 439 505 38,900  Descending Jacksonville Center
Wed 09:45:38 PM 29.0656 -81.2083 347° North 439 505 39,000 50 Climbing Jacksonville Center
Wed 09:46:37 PM 29.1808 -81.2611 338° Northwest 439 505 39,000  Level Jacksonville Center
Wed 09:47:37 PM 29.2964 -81.3067 341° North 439 505 39,000  Level Jacksonville Center
Wed 09:48:37 PM 29.4139 -81.3550 340° North 439 505 39,000 -50 Level Jacksonville Center
Wed 09:49:37 PM 29.5314 -81.4197 334° Northwest 434 499 38,900 -50 Descending Jacksonville Center
Wed 09:50:38 PM 29.6428 -81.4803 335° Northwest 429 494 38,900  Level Jacksonville Center
Wed 09:51:37 PM 29.7542 -81.5361 336° Northwest 429 494 38,900  Level Jacksonville Center
Wed 09:52:38 PM 29.8714 -81.5847 340° North 434 499 38,900  Level Jacksonville Center
Wed 09:53:37 PM 29.9828 -81.6433 336° Northwest 439 505 38,900  Level Jacksonville Center
Wed 09:54:37 PM 30.1000 -81.6922 340° North 439 505 38,900  Level Jacksonville Center
Wed 09:55:37 PM 30.2050 -81.7389 339° North 439 505 38,900  Level Jacksonville Center
Wed 09:56:37 PM 30.3203 -81.7906 339° North 439 505 38,900  Level Jacksonville Center
Wed 09:57:37 PM 30.4375 -81.8397 340° North 439 505 38,900  Level Jacksonville Center
Wed 09:58:37 PM 30.5697 -81.9033 338° Northwest 439 505 38,900  Level Jacksonville Center
Wed 09:59:38 PM 30.6847 -81.9553 339° North 451 519 38,900  Level Jacksonville Center
Wed 10:00:37 PM 30.8022 -82.0072 339° North 451 519 38,900  Level Jacksonville Center
Wed 10:01:37 PM 30.9194 -82.0619 338° Northwest 451 519 38,900  Level Jacksonville Center
Wed 10:02:37 PM 31.0303 -82.1069 341° North 457 526 38,900  Level Jacksonville Center
Wed 10:03:37 PM 31.1456 -82.1594 339° North 457 526 38,900 32 Level Jacksonville Center
Wed 10:05:43 PM 31.3856 -82.2728 338° Northwest 446 513 39,000 32 Climbing Atlanta Center
Wed 10:06:43 PM 31.5031 -82.3292 338° Northwest 445 512 39,000 -100 Level Atlanta Center
Wed 10:07:43 PM 31.6186 -82.3853 338° Northwest 445 512 38,800 -400 Descending Atlanta Center
Wed 10:08:43 PM 31.7364 -82.4444 337° Northwest 445 512 38,200 -850 Descending Atlanta Center
Wed 10:09:43 PM 31.8519 -82.5033 337° Northwest 445 512 37,100 -1,000 Descending Atlanta Center
Wed 10:10:43 PM 31.9756 -82.5625 338° Northwest 452 520 36,200 -800 Descending Atlanta Center
Wed 10:11:43 PM 32.0931 -82.6119 340° North 452 520 35,500 -600 Descending Atlanta Center
Wed 10:12:43 PM 32.2106 -82.6667 338° Northwest 457 526 35,000 -900 Descending Atlanta Center
Wed 10:13:43 PM 32.3075 -82.7461 325° Northwest 437 503 33,700 -1,700 Descending Atlanta Center
Wed 10:14:43 PM 32.4044 -82.8261 325° Northwest 427 491 31,600 -2,300 Descending Atlanta Center
Wed 10:15:43 PM 32.4928 -82.9061 323° Northwest 413 475 29,100 -2,500 Descending Atlanta Center
Wed 10:16:43 PM 32.5853 -82.9861 324° Northwest 413 475 26,600 -2,500 Descending Atlanta Center
Wed 10:17:43 PM 32.6778 -83.0642 325° Northwest 413 475 24,100 -2,350 Descending Atlanta Center
Wed 10:18:43 PM 32.7683 -83.1469 322° Northwest 418 481 21,900 -2,300 Descending Atlanta Center
Wed 10:19:43 PM 32.8628 -83.2228 326° Northwest 399 459 19,500 -2,300 Descending Atlanta Center
Wed 10:20:43 PM 32.9403 -83.2939 322° Northwest 392 451 17,300 -2,100 Descending Atlanta Center
Wed 10:21:43 PM 33.0200 -83.3650 323° Northwest 375 432 15,300 -1,950 Descending Atlanta Center
Wed 10:22:43 PM 33.0975 -83.4264 326° Northwest 344 396 13,400 -1,800 Descending Atlanta Center
Wed 10:23:43 PM 33.1794 -83.4928 326° Northwest 329 379 11,700 -1,200 Descending Atlanta Center
Wed 10:24:43 PM 33.2486 -83.5494 326° Northwest 316 364 11,000 -350 Descending Atlanta Center
Wed 10:25:43 PM 33.3156 -83.6014 327° Northwest 298 343 11,000  Level Atlanta Center
Wed 10:26:43 PM 33.3803 -83.6608 323° Northwest 292 336 11,000  Level Atlanta Center
Wed 10:27:43 PM 33.4514 -83.7150 328° Northwest 297 342 11,000 -200 Level Atlanta Center
Wed 10:28:43 PM 33.5308 -83.7547 337° Northwest 302 348 10,600 -700 Descending Atlanta Center
Wed 10:29:43 PM 33.6103 -83.7844 343° North 302 348 9,600 -1,000 Descending Atlanta Center
Wed 10:30:43 PM 33.6897 -83.8142 343° North 302 348 8,600 -800 Descending Atlanta Center
Wed 10:31:43 PM 33.7586 -83.8664 328° Northwest 291 335 8,000 -300 Descending Atlanta Center
Wed 10:32:43 PM 33.8214 -83.9214 324° Northwest 291 335 8,000  Level Atlanta Center
Wed 10:33:43 PM 33.8833 -83.9833 320° Northwest 285 328 8,000 -250 Level Atlanta TRACON
Wed 10:34:43 PM 33.9500 -84.0500 320° Northwest 293 337 7,500 -714 Descending Atlanta TRACON
Wed 10:35:49 PM 34.0000 -84.1333 306° West 286 329 6,500 -898 Descending Atlanta TRACON
Wed 10:36:50 PM 34.0500 -84.2000 312° West 286 329 5,600 -714 Descending Atlanta TRACON
Wed 10:37:55 PM 34.1000 -84.2833 306° West 284 327 5,000 -273 Descending Atlanta TRACON
Wed 10:39:02 PM 34.1500 -84.3667 306° West 279 321 5,000 -236 Level Atlanta TRACON
Wed 10:40:02 PM 34.1833 -84.4500 296° West 274 315 4,500 -450 Descending Atlanta TRACON
Wed 10:41:02 PM 34.2333 -84.5167 312° West 273 314 4,100 -200 Descending Atlanta TRACON
Wed 10:42:02 PM 34.2833 -84.6000 306° West 276 318 4,100  Level Atlanta TRACON
Wed 10:42:56 PM 34.2833 -84.6833 270° West 263 303 4,100  Level Atlanta TRACON

Login

Don't have an account? Register now (free) for customized features, flight alerts, and more!